Terminal Aerodrome Forecast
Issued by NWS

Home | Current Version | Previous Version | Text Only | Print | Product List | Glossary On
Versions: 1 2 3 4 5 6 7 8 9 10 11 12 13 14 15 16 17
609
FTUS46 KSEW 171732
TAFPAE
TAF
KPAE 171732Z 1718/1818 16007KT P6SM BKN018 BKN030
     FM172100 19008KT P6SM VCSH SCT030 BKN040
     FM180700 16008KT P6SM BKN015 OVC025
     FM181600 16009KT P6SM SCT025 SCT045 BKN200=

USA.gov is the U.S. government's official web portal to all federal, state and local government web resources and services.